createdAt,value
2022-12-28T00:00:17.902Z,17.98
2022-12-28T00:02:46.974Z,16.27
2022-12-28T00:05:16.138Z,23.85
2022-12-28T00:07:45.783Z,24.15
2022-12-28T00:34:36.364Z,59.42
2022-12-28T00:45:15.156Z,41.83
2022-12-28T00:47:44.688Z,51.85
2022-12-28T00:50:14.613Z,35.83
2022-12-28T00:52:43.661Z,44.50
2022-12-28T00:55:12.803Z,41.75
2022-12-28T00:57:42.248Z,40.20
2022-12-28T01:00:12.547Z,35.65
2022-12-28T01:02:44.361Z,36.70
2022-12-28T01:05:13.295Z,34.55
2022-12-28T01:07:42.270Z,34.08
2022-12-28T01:10:11.493Z,42.38
2022-12-28T01:12:40.490Z,36.55
2022-12-28T01:15:11.686Z,37.65
2022-12-28T01:17:41.148Z,35.63
2022-12-28T01:20:11.207Z,39.65
2022-12-28T01:22:40.264Z,32.63
2022-12-28T01:25:09.592Z,50.47
2022-12-28T01:27:38.637Z,43.38
2022-12-28T01:30:08.803Z,39.42
2022-12-28T01:32:37.763Z,39.67
2022-12-28T01:35:07.212Z,26.55
2022-12-28T01:37:36.852Z,32.75
2022-12-28T01:40:06.384Z,29.85
2022-12-28T01:42:35.356Z,27.08
2022-12-28T01:45:23.359Z,31.45
2022-12-28T01:47:55.359Z,28.75
2022-12-28T01:50:29.495Z,28.50
2022-12-28T01:55:33.952Z,28.50
2022-12-28T01:58:30.883Z,24.58
2022-12-28T02:01:00.107Z,26.33
2022-12-28T02:03:32.953Z,31.77
2022-12-28T02:06:06.151Z,28.35
2022-12-28T02:08:56.871Z,33.00
2022-12-28T02:11:25.927Z,30.15
2022-12-28T02:13:56.705Z,34.08
2022-12-28T02:16:25.754Z,23.77
2022-12-28T02:18:55.345Z,28.60
2022-12-28T02:21:35.325Z,24.70
2022-12-28T02:24:28.783Z,18.90
2022-12-28T02:27:30.826Z,17.60
2022-12-28T02:29:59.790Z,18.25
2022-12-28T02:32:40.869Z,18.48
2022-12-28T02:35:31.805Z,16.88
2022-12-28T02:38:12.116Z,8.98
2022-12-28T02:40:48.931Z,12.48
2022-12-28T02:43:18.293Z,12.38
2022-12-28T02:46:07.224Z,12.88
2022-12-28T02:49:05.803Z,12.52
2022-12-28T02:52:03.302Z,13.65
2022-12-28T02:55:02.963Z,19.77
2022-12-28T02:57:47.211Z,11.75
2022-12-28T03:03:22.111Z,15.05
2022-12-28T03:06:35.298Z,17.17
2022-12-28T03:09:41.032Z,18.10
2022-12-28T03:12:27.675Z,15.85
2022-12-28T03:15:09.000Z,19.25
2022-12-28T03:18:00.056Z,15.00
2022-12-28T03:20:50.713Z,18.48
2022-12-28T03:23:41.375Z,19.08
2022-12-28T03:26:32.494Z,22.90
2022-12-28T03:29:22.515Z,17.17
2022-12-28T03:31:51.775Z,19.02
2022-12-28T03:34:20.845Z,21.38
2022-12-28T03:37:26.414Z,17.48
2022-12-28T03:40:07.629Z,19.95
2022-12-28T03:43:02.906Z,20.88
2022-12-28T03:46:16.304Z,17.80
2022-12-28T03:48:47.139Z,20.27
2022-12-28T03:51:18.521Z,20.65
2022-12-28T03:53:49.304Z,15.82
2022-12-28T03:56:24.168Z,22.17
2022-12-28T03:58:54.123Z,14.90
2022-12-28T04:01:23.330Z,21.95
2022-12-28T04:03:52.441Z,24.92
2022-12-28T04:06:21.910Z,12.65
2022-12-28T04:08:50.909Z,15.65
2022-12-28T04:11:19.848Z,15.75
2022-12-28T04:13:48.870Z,21.17
2022-12-28T04:16:18.355Z,12.23
2022-12-28T04:18:48.381Z,12.43
2022-12-28T04:21:17.944Z,13.25
2022-12-28T04:23:46.963Z,15.70
2022-12-28T04:26:17.832Z,14.52
2022-12-28T04:28:47.145Z,15.85
2022-12-28T04:31:16.542Z,14.30
2022-12-28T04:33:45.533Z,15.70
2022-12-28T04:36:17.586Z,14.13
2022-12-28T04:38:49.091Z,12.93
2022-12-28T04:41:18.245Z,16.55
2022-12-28T04:43:47.247Z,12.25
2022-12-28T04:46:17.210Z,17.25
2022-12-28T04:48:46.290Z,13.68
2022-12-28T04:51:25.683Z,12.18
2022-12-28T04:53:56.281Z,18.73
2022-12-28T04:56:27.276Z,19.35
2022-12-28T04:58:58.432Z,10.25
2022-12-28T05:01:28.043Z,12.23
2022-12-28T05:03:59.461Z,9.30
2022-12-28T05:06:29.441Z,10.60
2022-12-28T05:08:59.479Z,12.07
2022-12-28T05:11:30.771Z,10.57
2022-12-28T05:14:00.104Z,11.98
2022-12-28T05:16:30.520Z,15.15
2022-12-28T05:18:59.963Z,12.60
2022-12-28T05:21:30.228Z,10.30
2022-12-28T05:24:00.241Z,10.45
2022-12-28T05:26:31.410Z,12.27
2022-12-28T05:29:00.410Z,14.50
2022-12-28T05:31:30.017Z,9.38
2022-12-28T05:33:59.048Z,9.38
2022-12-28T05:36:29.702Z,13.40
2022-12-28T05:38:58.815Z,10.20
2022-12-28T05:41:30.278Z,9.32
2022-12-28T05:44:01.007Z,15.75
2022-12-28T05:46:32.426Z,11.85
2022-12-28T05:49:02.261Z,15.98
2022-12-28T05:51:33.779Z,12.73
2022-12-28T05:54:07.465Z,11.32
2022-12-28T05:56:36.967Z,12.88
2022-12-28T05:59:08.793Z,12.85
2022-12-28T06:01:45.028Z,8.85
2022-12-28T06:04:20.404Z,12.18
2022-12-28T06:06:50.386Z,11.10
2022-12-28T06:09:19.535Z,9.82
2022-12-28T06:11:48.648Z,10.43
2022-12-28T06:14:17.643Z,9.38
2022-12-28T06:16:46.983Z,8.65
2022-12-28T06:19:16.609Z,12.07
2022-12-28T06:21:45.774Z,13.38
2022-12-28T06:24:15.261Z,9.70
2022-12-28T06:26:44.304Z,9.25
2022-12-28T06:29:13.855Z,9.68
2022-12-28T06:31:48.248Z,7.57
2022-12-28T06:34:17.264Z,9.45
2022-12-28T06:36:47.929Z,12.35
2022-12-28T06:39:17.143Z,8.80
2022-12-28T06:41:46.177Z,10.75
2022-12-28T06:44:16.472Z,8.48
2022-12-28T06:46:45.582Z,12.18
2022-12-28T06:49:14.597Z,10.70
2022-12-28T06:51:43.581Z,9.18
2022-12-28T06:54:13.118Z,10.23
2022-12-28T06:56:42.219Z,11.52
2022-12-28T06:59:11.224Z,11.05
2022-12-28T07:01:44.888Z,8.85
2022-12-28T07:04:17.450Z,10.07
2022-12-28T07:06:46.774Z,10.88
2022-12-28T07:09:17.726Z,12.82
2022-12-28T07:11:47.458Z,10.70
2022-12-28T07:14:16.487Z,10.52
2022-12-28T07:16:45.488Z,10.85
2022-12-28T07:19:14.449Z,8.82
2022-12-28T07:21:43.515Z,9.25
2022-12-28T07:24:12.700Z,9.88
2022-12-28T07:26:42.235Z,7.03
2022-12-28T07:29:11.602Z,10.77
2022-12-28T07:31:45.779Z,13.43
2022-12-28T07:34:17.104Z,7.10
2022-12-28T07:36:46.366Z,11.20
2022-12-28T07:39:15.410Z,9.27
2022-12-28T07:41:44.567Z,6.95
2022-12-28T07:44:15.450Z,6.43
2022-12-28T07:46:44.428Z,11.88
2022-12-28T07:49:16.272Z,11.73
2022-12-28T07:51:45.228Z,8.95
2022-12-28T07:54:14.245Z,16.65
2022-12-28T07:59:11.249Z,10.35
2022-12-28T08:01:40.598Z,9.18
2022-12-28T08:04:14.632Z,8.77
2022-12-28T08:06:44.967Z,8.45
2022-12-28T08:09:17.183Z,9.10
2022-12-28T08:11:47.477Z,9.27
2022-12-28T08:14:16.555Z,13.27
2022-12-28T08:16:46.419Z,8.88
2022-12-28T08:19:15.456Z,10.25
2022-12-28T08:21:47.318Z,21.25
2022-12-28T08:24:19.183Z,8.10
2022-12-28T08:26:49.430Z,9.75
2022-12-28T08:29:21.418Z,10.00
2022-12-28T08:31:51.208Z,10.15
2022-12-28T08:34:28.020Z,11.45
2022-12-28T08:36:57.969Z,13.10
2022-12-28T08:39:26.904Z,8.32
2022-12-28T08:41:57.562Z,15.10
2022-12-28T08:44:26.558Z,10.23
2022-12-28T08:46:57.012Z,8.65
2022-12-28T08:49:26.062Z,10.73
2022-12-28T08:51:55.118Z,10.55
2022-12-28T08:54:24.157Z,10.57
2022-12-28T08:56:55.399Z,9.18
2022-12-28T08:59:24.401Z,10.25
2022-12-28T09:01:53.497Z,9.50
2022-12-28T09:04:23.870Z,6.70
2022-12-28T09:06:53.118Z,9.68
2022-12-28T09:09:23.046Z,7.00
2022-12-28T09:11:52.114Z,11.73
2022-12-28T09:14:24.096Z,10.77
2022-12-28T09:16:54.888Z,8.40
2022-12-28T09:19:26.018Z,9.48
2022-12-28T09:21:57.599Z,10.95
2022-12-28T09:24:26.556Z,10.18
2022-12-28T09:26:56.471Z,12.23
2022-12-28T09:29:25.714Z,9.95
2022-12-28T09:31:54.731Z,11.75
2022-12-28T09:34:35.684Z,12.88
2022-12-28T09:37:06.675Z,8.90
2022-12-28T09:39:35.920Z,10.77
2022-12-28T09:42:16.142Z,6.82
2022-12-28T09:45:07.316Z,9.70
2022-12-28T09:47:46.943Z,9.40
2022-12-28T09:50:22.919Z,15.45
2022-12-28T09:56:39.022Z,13.23
2022-12-28T09:59:09.900Z,8.70
2022-12-28T10:01:41.448Z,9.50
2022-12-28T10:04:13.826Z,8.13
2022-12-28T10:06:44.764Z,11.40
2022-12-28T10:09:30.291Z,14.57
2022-12-28T10:12:02.296Z,12.75
2022-12-28T10:14:35.728Z,13.32
2022-12-28T10:17:07.426Z,18.08
2022-12-28T10:19:36.508Z,19.92
2022-12-28T10:22:13.067Z,9.55
2022-12-28T10:24:43.438Z,12.55
2022-12-28T10:27:23.842Z,10.48
2022-12-28T10:29:54.452Z,19.50
2022-12-28T10:32:23.555Z,16.50
2022-12-28T10:34:56.676Z,15.88
2022-12-28T10:37:27.267Z,9.43
2022-12-28T10:40:00.428Z,17.90
2022-12-28T10:42:53.733Z,15.30
2022-12-28T10:45:26.687Z,19.05
2022-12-28T10:47:57.606Z,16.70
2022-12-28T10:50:41.784Z,16.77
2022-12-28T10:56:11.846Z,35.53
2022-12-28T10:58:45.768Z,18.13
2022-12-28T11:03:46.720Z,20.73
2022-12-28T11:06:27.203Z,17.52
2022-12-28T11:09:17.420Z,16.88
2022-12-28T11:11:48.150Z,21.42
2022-12-28T11:14:38.730Z,16.90
2022-12-28T11:17:16.504Z,16.02
2022-12-28T11:19:46.018Z,12.52
2022-12-28T11:22:18.594Z,17.08
2022-12-28T11:24:47.731Z,16.98
2022-12-28T11:27:19.771Z,18.83
2022-12-28T11:29:51.849Z,15.40
2022-12-28T11:32:28.254Z,18.60
2022-12-28T11:34:59.178Z,22.92
2022-12-28T11:37:28.258Z,17.35
2022-12-28T11:39:57.488Z,19.40
2022-12-28T11:42:39.907Z,20.88
2022-12-28T11:45:37.235Z,21.97
2022-12-28T11:48:41.562Z,25.17
2022-12-28T11:51:27.658Z,18.95
2022-12-28T11:53:58.559Z,12.68
2022-12-28T11:56:47.816Z,12.27
2022-12-28T11:59:29.350Z,17.38
2022-12-28T12:01:59.699Z,26.08
2022-12-28T12:04:35.995Z,22.95
2022-12-28T12:07:05.036Z,22.40
2022-12-28T12:09:39.285Z,25.40
2022-12-28T12:12:18.470Z,27.33
2022-12-28T12:15:13.116Z,24.88
2022-12-28T12:20:32.075Z,31.13
2022-12-28T12:23:26.439Z,23.58
2022-12-28T12:25:58.906Z,33.78
2022-12-28T12:28:40.022Z,21.95
2022-12-28T12:31:13.615Z,19.00
2022-12-28T12:33:47.698Z,21.83
2022-12-28T12:39:21.539Z,24.63
2022-12-28T12:42:14.820Z,23.38
2022-12-28T12:45:02.015Z,24.42
2022-12-28T12:47:46.259Z,21.38
2022-12-28T12:53:48.045Z,27.35
2022-12-28T12:56:38.540Z,20.55
2022-12-28T12:59:48.243Z,23.90
2022-12-28T13:02:44.661Z,22.85
2022-12-28T13:05:25.537Z,28.70
2022-12-28T13:07:57.628Z,24.35
2022-12-28T13:10:53.338Z,27.33
2022-12-28T13:13:39.611Z,31.13
2022-12-28T13:16:14.037Z,31.50
2022-12-28T13:18:53.642Z,29.00
2022-12-28T13:21:24.347Z,34.20
2022-12-28T13:23:54.425Z,33.00
2022-12-28T13:26:31.195Z,22.10
2022-12-28T13:29:09.793Z,33.10
2022-12-28T13:31:43.343Z,29.33
2022-12-28T13:34:15.125Z,24.73
2022-12-28T13:36:51.469Z,20.52
2022-12-28T13:39:21.903Z,24.92
2022-12-28T13:42:39.802Z,28.27
2022-12-28T13:45:14.826Z,26.20
2022-12-28T13:47:48.868Z,26.83
2022-12-28T13:53:06.356Z,26.38
2022-12-28T13:55:50.416Z,27.58
2022-12-28T13:58:37.176Z,23.98
2022-12-28T14:01:11.652Z,23.55
2022-12-28T14:03:46.103Z,27.42
2022-12-28T14:06:18.897Z,26.00
2022-12-28T14:08:49.271Z,24.67
2022-12-28T14:11:19.140Z,27.85
2022-12-28T14:13:48.483Z,37.15
2022-12-28T14:16:17.807Z,22.95
2022-12-28T14:18:47.181Z,29.88
2022-12-28T14:21:16.176Z,27.65
2022-12-28T14:23:45.535Z,27.23
2022-12-28T14:26:24.365Z,28.30
2022-12-28T14:28:58.576Z,31.55
2022-12-28T14:31:33.919Z,31.45
2022-12-28T14:34:06.005Z,30.60
2022-12-28T14:36:44.812Z,29.23
2022-12-28T14:39:37.848Z,35.00
2022-12-28T14:42:18.401Z,33.03
2022-12-28T14:44:52.476Z,37.35
2022-12-28T14:47:47.377Z,35.92
2022-12-28T14:50:29.007Z,34.80
2022-12-28T14:53:12.500Z,39.25
2022-12-28T14:55:55.146Z,38.17
2022-12-28T14:58:29.357Z,29.77
2022-12-28T15:01:01.858Z,27.25
2022-12-28T15:03:31.852Z,35.92
2022-12-28T15:06:03.693Z,33.80
2022-12-28T15:08:32.715Z,32.58
2022-12-28T15:13:52.114Z,35.78
2022-12-28T15:16:26.776Z,29.70
2022-12-28T15:18:56.031Z,30.48
2022-12-28T15:21:25.975Z,37.22
2022-12-28T15:23:56.639Z,28.42
2022-12-28T15:26:28.596Z,26.70
2022-12-28T15:28:57.612Z,31.58
2022-12-28T15:31:26.742Z,21.42
2022-12-28T15:33:55.801Z,26.05
2022-12-28T15:36:26.041Z,26.75
2022-12-28T15:38:58.274Z,17.65
2022-12-28T15:41:45.497Z,19.30
2022-12-28T15:44:18.988Z,16.23
2022-12-28T15:46:52.475Z,20.08
2022-12-28T15:49:21.587Z,18.08
2022-12-28T15:51:50.655Z,16.77
2022-12-28T15:54:20.030Z,18.02
2022-12-28T15:56:55.054Z,20.08
2022-12-28T15:59:24.253Z,15.60
2022-12-28T16:01:53.539Z,19.20
2022-12-28T16:04:22.734Z,23.15
2022-12-28T16:06:51.726Z,18.73
2022-12-28T16:09:20.779Z,27.23
2022-12-28T16:11:54.810Z,18.40
2022-12-28T16:14:25.867Z,19.42
2022-12-28T16:16:55.001Z,22.48
2022-12-28T16:19:24.020Z,26.05
2022-12-28T16:21:53.407Z,25.17
2022-12-28T16:24:22.416Z,23.65
2022-12-28T16:26:51.334Z,21.77
2022-12-28T16:29:20.458Z,25.40
2022-12-28T16:31:49.439Z,28.98
2022-12-28T16:34:19.823Z,20.33
2022-12-28T16:36:49.506Z,19.80
2022-12-28T16:39:19.684Z,29.13
2022-12-28T16:41:48.719Z,29.17
2022-12-28T16:44:24.202Z,31.20
2022-12-28T16:46:55.281Z,27.70
2022-12-28T16:49:24.298Z,25.23
2022-12-28T16:51:53.362Z,24.00
2022-12-28T16:54:25.718Z,20.20
2022-12-28T16:56:55.938Z,21.58
2022-12-28T16:59:27.948Z,24.23
2022-12-28T17:01:58.151Z,19.85
2022-12-28T17:04:27.372Z,18.30
2022-12-28T17:06:56.470Z,17.65
2022-12-28T17:09:25.540Z,16.08
2022-12-28T17:11:54.618Z,14.40
2022-12-28T17:14:37.410Z,18.45
2022-12-28T17:17:08.236Z,19.42
2022-12-28T17:19:37.497Z,14.77
2022-12-28T17:22:06.769Z,14.48
2022-12-28T17:24:35.797Z,14.13
2022-12-28T17:27:08.490Z,18.60
2022-12-28T17:29:40.292Z,12.98
2022-12-28T17:32:10.102Z,17.02
2022-12-28T17:34:39.464Z,14.13
2022-12-28T17:37:08.647Z,17.80
2022-12-28T17:39:40.497Z,15.43
2022-12-28T17:42:10.464Z,16.40
2022-12-28T17:44:39.982Z,11.25
2022-12-28T17:47:09.771Z,12.90
2022-12-28T17:49:38.804Z,16.48
2022-12-28T17:52:07.810Z,14.55
2022-12-28T17:54:36.825Z,11.73
2022-12-28T17:57:05.843Z,8.95
2022-12-28T17:59:34.843Z,13.02
2022-12-28T18:02:06.082Z,11.88
2022-12-28T18:04:36.349Z,12.63
2022-12-28T18:07:05.697Z,14.73
2022-12-28T18:09:34.942Z,12.60
2022-12-28T18:12:04.008Z,11.30
2022-12-28T18:14:32.950Z,16.35
2022-12-28T18:17:02.035Z,12.43
2022-12-28T18:19:31.290Z,15.07
2022-12-28T18:22:00.297Z,15.65
2022-12-28T18:24:29.965Z,12.95
2022-12-28T18:26:59.036Z,10.63
2022-12-28T18:29:28.020Z,11.25
2022-12-28T18:31:57.021Z,12.77
2022-12-28T18:34:26.042Z,11.38
2022-12-28T18:36:55.033Z,13.25
2022-12-28T18:39:24.082Z,14.80
2022-12-28T18:41:53.139Z,17.70
2022-12-28T18:44:22.132Z,10.15
2022-12-28T18:46:51.214Z,14.05
2022-12-28T18:49:21.007Z,12.50
2022-12-28T18:51:49.996Z,9.02
2022-12-28T18:54:19.075Z,10.68
2022-12-28T18:56:48.073Z,19.10
2022-12-28T18:59:17.108Z,11.82
2022-12-28T19:04:35.570Z,14.55
2022-12-28T19:07:04.699Z,11.07
2022-12-28T19:09:33.755Z,13.48
2022-12-28T19:12:02.824Z,17.27
2022-12-28T19:14:31.855Z,13.60
2022-12-28T19:17:00.834Z,11.10
2022-12-28T19:19:29.785Z,11.10
2022-12-28T19:21:59.294Z,10.52
2022-12-28T19:24:28.363Z,13.75
2022-12-28T19:26:57.354Z,10.15
2022-12-28T19:29:26.457Z,11.90
2022-12-28T19:31:55.938Z,11.23
2022-12-28T19:34:25.076Z,9.57
2022-12-28T19:36:54.065Z,9.88
2022-12-28T19:39:23.000Z,9.45
2022-12-28T19:41:52.029Z,7.72
2022-12-28T19:44:21.490Z,12.45
2022-12-28T19:46:50.656Z,10.52
2022-12-28T19:49:19.601Z,9.77
2022-12-28T19:51:48.588Z,11.10
2022-12-28T19:54:17.649Z,9.05
2022-12-28T19:56:46.663Z,12.30
2022-12-28T19:59:15.616Z,11.75
2022-12-28T20:01:44.702Z,9.68
2022-12-28T20:04:14.631Z,11.23
2022-12-28T20:06:45.143Z,11.25
2022-12-28T20:09:15.199Z,9.85
2022-12-28T20:11:46.007Z,10.13
2022-12-28T20:14:23.194Z,10.30
2022-12-28T20:16:54.243Z,9.85
2022-12-28T20:19:23.291Z,11.32
2022-12-28T20:21:52.358Z,9.43
2022-12-28T20:24:22.798Z,9.50
2022-12-28T20:26:56.400Z,13.68
2022-12-28T20:29:28.729Z,10.60
2022-12-28T20:31:57.731Z,15.52
2022-12-28T20:34:28.195Z,8.00
2022-12-28T20:36:57.227Z,12.85
2022-12-28T20:39:26.225Z,10.98
2022-12-28T20:42:13.202Z,13.75
2022-12-28T20:44:42.224Z,11.07
2022-12-28T20:47:11.504Z,9.50
2022-12-28T20:49:40.576Z,10.38
2022-12-28T20:52:09.556Z,10.98
2022-12-28T20:54:38.532Z,10.20
2022-12-28T20:57:07.463Z,12.27
2022-12-28T20:59:36.441Z,13.38
2022-12-28T21:02:05.512Z,13.00
2022-12-28T21:04:34.569Z,16.08
2022-12-28T21:07:03.579Z,10.50
2022-12-28T21:09:32.881Z,10.35
2022-12-28T21:12:01.866Z,13.98
2022-12-28T21:14:30.820Z,10.40
2022-12-28T21:16:59.776Z,11.82
2022-12-28T21:19:28.829Z,17.15
2022-12-28T21:21:57.840Z,11.07
2022-12-28T21:24:27.130Z,13.40
2022-12-28T21:26:56.152Z,11.00
2022-12-28T21:29:26.166Z,11.05
2022-12-28T21:31:56.007Z,10.50
2022-12-28T21:34:28.847Z,10.43
2022-12-28T21:37:18.295Z,15.18
2022-12-28T21:39:47.265Z,10.68
2022-12-28T21:42:16.768Z,12.77
2022-12-28T21:44:45.712Z,12.02
2022-12-28T21:47:14.714Z,10.73
2022-12-28T21:49:45.016Z,11.95
2022-12-28T21:52:14.078Z,12.68
2022-12-28T21:54:43.045Z,10.02
2022-12-28T21:57:13.552Z,10.82
2022-12-28T21:59:42.832Z,13.95
2022-12-28T22:02:37.453Z,10.95
2022-12-28T22:08:13.840Z,18.85
2022-12-28T22:11:00.781Z,49.38
2022-12-28T22:13:29.753Z,82.72
2022-12-28T22:15:59.303Z,65.72
2022-12-28T22:21:17.200Z,52.03
2022-12-28T22:23:46.210Z,44.88
2022-12-28T22:26:15.213Z,51.53
2022-12-28T22:28:44.153Z,41.25
2022-12-28T22:31:28.267Z,43.20
2022-12-28T22:34:01.755Z,36.83
2022-12-28T22:36:34.353Z,32.85
2022-12-28T22:39:03.386Z,42.60
2022-12-28T22:41:32.417Z,36.65
2022-12-28T22:44:01.391Z,37.03
2022-12-28T22:46:30.399Z,38.00
2022-12-28T22:48:59.452Z,33.15
2022-12-28T22:51:28.404Z,35.10
2022-12-28T22:53:57.334Z,30.63
2022-12-28T22:56:26.315Z,36.10
2022-12-28T22:58:55.310Z,33.70
2022-12-28T23:01:24.486Z,28.88
2022-12-28T23:03:53.682Z,35.88
2022-12-28T23:06:22.780Z,31.38
2022-12-28T23:08:51.753Z,35.10
2022-12-28T23:11:53.303Z,32.78
2022-12-28T23:14:43.308Z,31.30
2022-12-28T23:17:17.208Z,29.85
2022-12-28T23:20:05.484Z,27.42
2022-12-28T23:22:54.579Z,41.85
2022-12-28T23:25:43.563Z,42.92
2022-12-28T23:28:15.351Z,49.80
2022-12-28T23:30:48.086Z,42.05
2022-12-28T23:33:18.758Z,48.67
2022-12-28T23:35:47.773Z,44.97
2022-12-28T23:38:16.720Z,36.92
2022-12-28T23:40:45.807Z,37.75
2022-12-28T23:43:14.826Z,35.30
2022-12-28T23:45:44.009Z,32.17
2022-12-28T23:48:12.990Z,35.85
2022-12-28T23:50:41.903Z,32.63
2022-12-28T23:53:10.920Z,33.70
2022-12-28T23:55:39.884Z,32.70
2022-12-28T23:58:08.853Z,28.70
